sensor_id;sensor_type;location;lat;lon;timestamp;pressure;altitude;pressure_sealevel;temperature;humidity
80712;BME280;70078;51.596;5.678;2023-08-06T00:00:07;100271.31;;;16.07;81.31
80712;BME280;70078;51.596;5.678;2023-08-06T00:02:33;100299.00;;;16.21;81.59
80712;BME280;70078;51.596;5.678;2023-08-06T00:05:17;100284.75;;;16.14;81.38
80712;BME280;70078;51.596;5.678;2023-08-06T00:07:49;100304.00;;;16.18;81.45
80712;BME280;70078;51.596;5.678;2023-08-06T00:10:15;100297.34;;;16.20;81.54
80712;BME280;70078;51.596;5.678;2023-08-06T00:12:40;100282.50;;;16.11;81.44
80712;BME280;70078;51.596;5.678;2023-08-06T00:15:06;100287.22;;;16.16;81.83
80712;BME280;70078;51.596;5.678;2023-08-06T00:17:33;100273.78;;;16.09;81.17
80712;BME280;70078;51.596;5.678;2023-08-06T00:19:58;100297.09;;;16.28;81.10
80712;BME280;70078;51.596;5.678;2023-08-06T00:22:29;100274.63;;;16.09;81.74
80712;BME280;70078;51.596;5.678;2023-08-06T00:24:54;100251.28;;;16.03;81.42
80712;BME280;70078;51.596;5.678;2023-08-06T00:27:22;100247.22;;;15.88;81.76
80712;BME280;70078;51.596;5.678;2023-08-06T00:29:47;100275.47;;;16.10;81.82
80712;BME280;70078;51.596;5.678;2023-08-06T00:32:13;100250.72;;;15.95;81.74
80712;BME280;70078;51.596;5.678;2023-08-06T00:34:38;100275.66;;;16.08;81.83
80712;BME280;70078;51.596;5.678;2023-08-06T00:37:04;100201.59;;;15.61;81.79
80712;BME280;70078;51.596;5.678;2023-08-06T00:39:29;100270.91;;;16.11;82.06
80712;BME280;70078;51.596;5.678;2023-08-06T00:41:54;100269.44;;;16.08;81.84
80712;BME280;70078;51.596;5.678;2023-08-06T00:44:20;100176.00;;;15.45;81.45
80712;BME280;70078;51.596;5.678;2023-08-06T00:46:45;100264.94;;;16.02;81.57
80712;BME280;70078;51.596;5.678;2023-08-06T00:49:11;100258.94;;;16.00;81.41
80712;BME280;70078;51.596;5.678;2023-08-06T00:51:36;100229.66;;;15.78;81.66
80712;BME280;70078;51.596;5.678;2023-08-06T00:54:02;100243.25;;;15.90;82.08
80712;BME280;70078;51.596;5.678;2023-08-06T00:56:28;100241.03;;;15.87;81.68
80712;BME280;70078;51.596;5.678;2023-08-06T00:58:54;100259.97;;;15.99;81.61
80712;BME280;70078;51.596;5.678;2023-08-06T01:01:19;100238.75;;;15.84;81.91
80712;BME280;70078;51.596;5.678;2023-08-06T01:03:45;100246.78;;;15.91;81.95
80712;BME280;70078;51.596;5.678;2023-08-06T01:06:11;100242.03;;;15.86;81.66
80712;BME280;70078;51.596;5.678;2023-08-06T01:14:23;100263.69;;;16.04;81.95
80712;BME280;70078;51.596;5.678;2023-08-06T01:16:54;100238.31;;;15.87;82.31
80712;BME280;70078;51.596;5.678;2023-08-06T01:19:21;100249.84;;;15.94;82.00
80712;BME280;70078;51.596;5.678;2023-08-06T01:21:46;100246.75;;;15.97;81.89
80712;BME280;70078;51.596;5.678;2023-08-06T01:24:11;100255.19;;;16.01;82.28
80712;BME280;70078;51.596;5.678;2023-08-06T01:27:11;100267.53;;;16.15;82.05
80712;BME280;70078;51.596;5.678;2023-08-06T01:29:47;100260.16;;;16.04;81.98
80712;BME280;70078;51.596;5.678;2023-08-06T01:32:14;100275.63;;;16.15;82.14
80712;BME280;70078;51.596;5.678;2023-08-06T01:34:42;100271.69;;;16.18;81.79
80712;BME280;70078;51.596;5.678;2023-08-06T01:37:09;100249.41;;;16.04;81.90
80712;BME280;70078;51.596;5.678;2023-08-06T01:39:35;100259.91;;;16.12;81.92
80712;BME280;70078;51.596;5.678;2023-08-06T01:42:00;100267.50;;;16.22;81.37
80712;BME280;70078;51.596;5.678;2023-08-06T01:44:25;100263.53;;;16.24;80.93
80712;BME280;70078;51.596;5.678;2023-08-06T01:46:51;100239.19;;;16.13;81.09
80712;BME280;70078;51.596;5.678;2023-08-06T01:49:16;100264.13;;;16.33;81.01
80712;BME280;70078;51.596;5.678;2023-08-06T01:51:41;100241.84;;;16.19;81.15
80712;BME280;70078;51.596;5.678;2023-08-06T01:54:07;100257.97;;;16.26;81.26
80712;BME280;70078;51.596;5.678;2023-08-06T01:56:32;100245.78;;;16.17;81.24
80712;BME280;70078;51.596;5.678;2023-08-06T01:58:57;100255.09;;;16.21;81.48
80712;BME280;70078;51.596;5.678;2023-08-06T02:01:23;100253.25;;;16.15;81.07
80712;BME280;70078;51.596;5.678;2023-08-06T02:03:48;100266.63;;;16.28;81.14
80712;BME280;70078;51.596;5.678;2023-08-06T02:06:13;100235.50;;;16.07;81.19
80712;BME280;70078;51.596;5.678;2023-08-06T02:08:39;100268.75;;;16.26;81.06
80712;BME280;70078;51.596;5.678;2023-08-06T02:11:05;100253.22;;;16.21;81.18
80712;BME280;70078;51.596;5.678;2023-08-06T02:13:30;100255.53;;;16.18;81.53
80712;BME280;70078;51.596;5.678;2023-08-06T02:15:55;100272.63;;;16.30;81.44
80712;BME280;70078;51.596;5.678;2023-08-06T02:18:21;100256.31;;;16.25;81.04
80712;BME280;70078;51.596;5.678;2023-08-06T02:20:56;100267.44;;;16.35;80.95
80712;BME280;70078;51.596;5.678;2023-08-06T02:23:25;100240.16;;;16.25;80.72
80712;BME280;70078;51.596;5.678;2023-08-06T02:26:01;100245.91;;;16.28;81.06
80712;BME280;70078;51.596;5.678;2023-08-06T02:28:27;100259.94;;;16.37;80.67
80712;BME280;70078;51.596;5.678;2023-08-06T02:30:52;100242.00;;;16.24;80.79
80712;BME280;70078;51.596;5.678;2023-08-06T02:33:18;100231.84;;;16.26;80.79
80712;BME280;70078;51.596;5.678;2023-08-06T02:35:43;100231.03;;;16.26;80.73
80712;BME280;70078;51.596;5.678;2023-08-06T02:38:09;100207.69;;;16.13;81.18
80712;BME280;70078;51.596;5.678;2023-08-06T02:40:34;100234.31;;;16.28;80.93
80712;BME280;70078;51.596;5.678;2023-08-06T02:42:59;100224.00;;;16.25;80.75
80712;BME280;70078;51.596;5.678;2023-08-06T02:45:25;100225.19;;;16.29;80.75
80712;BME280;70078;51.596;5.678;2023-08-06T02:47:50;100242.72;;;16.38;80.47
80712;BME280;70078;51.596;5.678;2023-08-06T02:50:15;100230.13;;;16.32;80.32
80712;BME280;70078;51.596;5.678;2023-08-06T02:52:40;100217.28;;;16.34;80.38
80712;BME280;70078;51.596;5.678;2023-08-06T02:55:06;100244.28;;;16.52;79.98
80712;BME280;70078;51.596;5.678;2023-08-06T02:57:32;100245.31;;;16.51;79.80
80712;BME280;70078;51.596;5.678;2023-08-06T02:59:57;100248.25;;;16.50;80.15
80712;BME280;70078;51.596;5.678;2023-08-06T03:02:23;100210.44;;;16.31;80.10
80712;BME280;70078;51.596;5.678;2023-08-06T03:04:48;100239.28;;;16.56;79.60
80712;BME280;70078;51.596;5.678;2023-08-06T03:07:13;100244.00;;;16.60;79.60
80712;BME280;70078;51.596;5.678;2023-08-06T03:09:39;100237.25;;;16.51;79.71
80712;BME280;70078;51.596;5.678;2023-08-06T03:12:05;100206.50;;;16.34;80.28
80712;BME280;70078;51.596;5.678;2023-08-06T03:14:30;100219.72;;;16.42;79.87
80712;BME280;70078;51.596;5.678;2023-08-06T03:16:55;100208.97;;;16.35;79.75
80712;BME280;70078;51.596;5.678;2023-08-06T03:19:21;100192.31;;;16.20;80.11
80712;BME280;70078;51.596;5.678;2023-08-06T03:21:46;100214.75;;;16.39;79.99
80712;BME280;70078;51.596;5.678;2023-08-06T03:24:13;100213.09;;;16.38;80.02
80712;BME280;70078;51.596;5.678;2023-08-06T03:26:39;100224.03;;;16.43;79.79
80712;BME280;70078;51.596;5.678;2023-08-06T03:29:04;100219.72;;;16.42;79.78
80712;BME280;70078;51.596;5.678;2023-08-06T03:31:29;100234.38;;;16.46;79.76
80712;BME280;70078;51.596;5.678;2023-08-06T03:33:54;100215.38;;;16.41;80.12
80712;BME280;70078;51.596;5.678;2023-08-06T03:36:20;100223.88;;;16.38;79.96
80712;BME280;70078;51.596;5.678;2023-08-06T03:38:45;100231.25;;;16.49;80.15
80712;BME280;70078;51.596;5.678;2023-08-06T03:41:11;100223.44;;;16.41;79.70
80712;BME280;70078;51.596;5.678;2023-08-06T03:43:36;100231.69;;;16.46;79.74
80712;BME280;70078;51.596;5.678;2023-08-06T03:46:01;100230.03;;;16.45;80.00
80712;BME280;70078;51.596;5.678;2023-08-06T03:48:27;100223.44;;;16.41;79.97
80712;BME280;70078;51.596;5.678;2023-08-06T03:50:52;100252.00;;;16.49;80.11
80712;BME280;70078;51.596;5.678;2023-08-06T03:53:17;100195.66;;;16.16;80.14
80712;BME280;70078;51.596;5.678;2023-08-06T03:55:43;100220.63;;;16.29;80.25
80712;BME280;70078;51.596;5.678;2023-08-06T03:58:08;100208.25;;;16.22;80.16
80712;BME280;70078;51.596;5.678;2023-08-06T04:00:33;100244.56;;;16.44;80.17
80712;BME280;70078;51.596;5.678;2023-08-06T04:02:59;100167.66;;;15.92;80.23
80712;BME280;70078;51.596;5.678;2023-08-06T04:05:24;100195.50;;;16.11;80.19
80712;BME280;70078;51.596;5.678;2023-08-06T04:07:49;100213.47;;;16.17;80.45
80712;BME280;70078;51.596;5.678;2023-08-06T04:10:15;100218.22;;;16.21;79.86
80712;BME280;70078;51.596;5.678;2023-08-06T04:12:40;100209.38;;;16.07;79.58
80712;BME280;70078;51.596;5.678;2023-08-06T04:15:06;100203.22;;;16.00;80.07
80712;BME280;70078;51.596;5.678;2023-08-06T04:17:31;100207.75;;;16.06;79.80
80712;BME280;70078;51.596;5.678;2023-08-06T04:19:57;100236.00;;;16.22;80.02
80712;BME280;70078;51.596;5.678;2023-08-06T04:22:24;100231.91;;;16.20;79.84
80712;BME280;70078;51.596;5.678;2023-08-06T04:24:49;100237.28;;;16.20;79.83
80712;BME280;70078;51.596;5.678;2023-08-06T04:27:15;100249.88;;;16.26;79.97
80712;BME280;70078;51.596;5.678;2023-08-06T04:29:41;100216.28;;;16.03;79.95
80712;BME280;70078;51.596;5.678;2023-08-06T04:32:08;100256.91;;;16.27;80.15
80712;BME280;70078;51.596;5.678;2023-08-06T04:34:34;100258.38;;;16.23;80.26
80712;BME280;70078;51.596;5.678;2023-08-06T04:37:00;100259.00;;;16.25;79.95
80712;BME280;70078;51.596;5.678;2023-08-06T04:39:25;100240.25;;;16.12;79.99
80712;BME280;70078;51.596;5.678;2023-08-06T04:41:51;100226.16;;;16.09;79.97
80712;BME280;70078;51.596;5.678;2023-08-06T04:44:16;100235.28;;;16.08;80.35
80712;BME280;70078;51.596;5.678;2023-08-06T04:46:42;100247.47;;;16.18;80.40
80712;BME280;70078;51.596;5.678;2023-08-06T04:49:07;100258.78;;;16.26;80.82
80712;BME280;70078;51.596;5.678;2023-08-06T04:51:32;100229.28;;;16.06;80.71
80712;BME280;70078;51.596;5.678;2023-08-06T04:53:58;100247.28;;;16.13;80.97
80712;BME280;70078;51.596;5.678;2023-08-06T04:56:23;100272.25;;;16.26;80.92
80712;BME280;70078;51.596;5.678;2023-08-06T04:58:49;100243.50;;;16.20;80.73
80712;BME280;70078;51.596;5.678;2023-08-06T05:01:15;100250.56;;;16.15;81.01
80712;BME280;70078;51.596;5.678;2023-08-06T05:03:40;100252.56;;;16.26;80.87
80712;BME280;70078;51.596;5.678;2023-08-06T05:06:05;100279.56;;;16.44;80.84
80712;BME280;70078;51.596;5.678;2023-08-06T05:08:31;100270.44;;;16.45;80.84
80712;BME280;70078;51.596;5.678;2023-08-06T05:10:56;100281.31;;;16.63;80.68
80712;BME280;70078;51.596;5.678;2023-08-06T05:13:21;100252.03;;;16.42;80.58
80712;BME280;70078;51.596;5.678;2023-08-06T05:15:47;100292.22;;;16.69;80.63
80712;BME280;70078;51.596;5.678;2023-08-06T05:18:12;100255.72;;;16.48;80.60
80712;BME280;70078;51.596;5.678;2023-08-06T05:20:39;100256.16;;;16.45;80.82
80712;BME280;70078;51.596;5.678;2023-08-06T05:23:04;100290.22;;;16.64;80.68
80712;BME280;70078;51.596;5.678;2023-08-06T05:25:30;100257.16;;;16.50;80.81
80712;BME280;70078;51.596;5.678;2023-08-06T05:27:55;100291.56;;;16.80;79.69
80712;BME280;70078;51.596;5.678;2023-08-06T05:30:21;100298.16;;;16.84;80.19
80712;BME280;70078;51.596;5.678;2023-08-06T05:32:46;100290.34;;;16.76;80.15
80712;BME280;70078;51.596;5.678;2023-08-06T05:35:11;100297.09;;;16.85;80.01
80712;BME280;70078;51.596;5.678;2023-08-06T05:37:37;100301.78;;;16.96;79.88
80712;BME280;70078;51.596;5.678;2023-08-06T05:40:02;100275.34;;;16.86;79.82
80712;BME280;70078;51.596;5.678;2023-08-06T05:42:29;100279.09;;;16.85;79.92
80712;BME280;70078;51.596;5.678;2023-08-06T05:44:54;100296.69;;;17.06;79.93
80712;BME280;70078;51.596;5.678;2023-08-06T05:47:19;100270.63;;;17.00;79.40
80712;BME280;70078;51.596;5.678;2023-08-06T05:49:45;100282.72;;;17.16;79.79
80712;BME280;70078;51.596;5.678;2023-08-06T05:52:11;100302.66;;;17.33;79.62
80712;BME280;70078;51.596;5.678;2023-08-06T05:54:36;100311.28;;;17.42;78.74
80712;BME280;70078;51.596;5.678;2023-08-06T05:57:01;100294.34;;;17.35;78.20
80712;BME280;70078;51.596;5.678;2023-08-06T05:59:27;100294.94;;;17.55;78.31
80712;BME280;70078;51.596;5.678;2023-08-06T06:01:52;100334.41;;;17.74;78.11
80712;BME280;70078;51.596;5.678;2023-08-06T06:04:18;100304.47;;;17.58;78.48
80712;BME280;70078;51.596;5.678;2023-08-06T06:06:43;100334.31;;;17.81;78.80
80712;BME280;70078;51.596;5.678;2023-08-06T06:09:09;100323.16;;;17.78;78.42
80712;BME280;70078;51.596;5.678;2023-08-06T06:11:35;100358.84;;;17.98;77.98
80712;BME280;70078;51.596;5.678;2023-08-06T06:14:00;100322.34;;;17.77;77.98
80712;BME280;70078;51.596;5.678;2023-08-06T06:16:26;100322.53;;;17.75;78.00
80712;BME280;70078;51.596;5.678;2023-08-06T06:18:51;100323.75;;;17.80;77.08
80712;BME280;70078;51.596;5.678;2023-08-06T06:21:17;100351.13;;;18.01;77.42
80712;BME280;70078;51.596;5.678;2023-08-06T06:23:42;100333.34;;;17.94;77.56
80712;BME280;70078;51.596;5.678;2023-08-06T06:26:07;100310.72;;;17.77;77.21
80712;BME280;70078;51.596;5.678;2023-08-06T06:28:33;100328.25;;;17.86;77.10
80712;BME280;70078;51.596;5.678;2023-08-06T06:31:01;100364.81;;;18.18;77.68
80712;BME280;70078;51.596;5.678;2023-08-06T06:33:28;100314.28;;;17.89;77.47
80712;BME280;70078;51.596;5.678;2023-08-06T06:35:53;100370.38;;;18.23;77.13
80712;BME280;70078;51.596;5.678;2023-08-06T06:38:18;100326.88;;;17.95;77.12
80712;BME280;70078;51.596;5.678;2023-08-06T06:40:43;100332.53;;;17.93;77.12
80712;BME280;70078;51.596;5.678;2023-08-06T06:43:09;100336.72;;;18.08;76.58
80712;BME280;70078;51.596;5.678;2023-08-06T06:45:34;100344.00;;;18.07;77.03
80712;BME280;70078;51.596;5.678;2023-08-06T06:47:59;100329.06;;;17.86;76.61
80712;BME280;70078;51.596;5.678;2023-08-06T06:50:25;100356.88;;;18.05;75.54
80712;BME280;70078;51.596;5.678;2023-08-06T06:52:51;100326.16;;;17.88;76.48
80712;BME280;70078;51.596;5.678;2023-08-06T06:55:16;100341.53;;;17.87;76.66
80712;BME280;70078;51.596;5.678;2023-08-06T06:57:42;100317.31;;;17.81;76.37
80712;BME280;70078;51.596;5.678;2023-08-06T07:00:08;100355.97;;;18.11;76.52
80712;BME280;70078;51.596;5.678;2023-08-06T07:02:33;100400.44;;;18.45;76.08
80712;BME280;70078;51.596;5.678;2023-08-06T07:04:58;100374.16;;;18.34;75.96
80712;BME280;70078;51.596;5.678;2023-08-06T07:07:24;100357.31;;;18.20;76.33
80712;BME280;70078;51.596;5.678;2023-08-06T07:09:49;100400.94;;;18.54;76.80
80712;BME280;70078;51.596;5.678;2023-08-06T07:12:14;100371.78;;;18.26;75.46
80712;BME280;70078;51.596;5.678;2023-08-06T07:14:40;100389.13;;;18.37;75.30
80712;BME280;70078;51.596;5.678;2023-08-06T07:17:05;100388.25;;;18.36;75.83
80712;BME280;70078;51.596;5.678;2023-08-06T07:19:30;100381.84;;;18.37;75.04
80712;BME280;70078;51.596;5.678;2023-08-06T07:21:56;100364.72;;;18.25;75.36
80712;BME280;70078;51.596;5.678;2023-08-06T07:24:21;100381.31;;;18.28;75.43
80712;BME280;70078;51.596;5.678;2023-08-06T07:26:47;100394.06;;;18.40;75.22
80712;BME280;70078;51.596;5.678;2023-08-06T07:29:12;100394.53;;;18.37;75.46
80712;BME280;70078;51.596;5.678;2023-08-06T07:31:37;100403.22;;;18.39;75.53
80712;BME280;70078;51.596;5.678;2023-08-06T07:34:03;100419.13;;;18.47;75.34
80712;BME280;70078;51.596;5.678;2023-08-06T07:36:28;100404.59;;;18.29;75.55
80712;BME280;70078;51.596;5.678;2023-08-06T07:38:54;100411.91;;;18.41;74.68
80712;BME280;70078;51.596;5.678;2023-08-06T07:41:24;100414.63;;;18.41;74.72
80712;BME280;70078;51.596;5.678;2023-08-06T07:43:50;100405.34;;;18.37;74.29
80712;BME280;70078;51.596;5.678;2023-08-06T07:46:15;100406.50;;;18.41;74.63
80712;BME280;70078;51.596;5.678;2023-08-06T07:48:41;100403.06;;;18.34;74.93
80712;BME280;70078;51.596;5.678;2023-08-06T07:51:06;100409.38;;;18.46;74.57
80712;BME280;70078;51.596;5.678;2023-08-06T07:53:31;100399.94;;;18.37;74.61
80712;BME280;70078;51.596;5.678;2023-08-06T07:55:57;100434.63;;;18.70;74.75
80712;BME280;70078;51.596;5.678;2023-08-06T07:58:24;100440.53;;;18.78;74.85
80712;BME280;70078;51.596;5.678;2023-08-06T08:00:50;100395.88;;;18.57;74.56
80712;BME280;70078;51.596;5.678;2023-08-06T08:03:16;100397.91;;;18.62;75.08
80712;BME280;70078;51.596;5.678;2023-08-06T08:05:43;100438.13;;;19.00;73.93
80712;BME280;70078;51.596;5.678;2023-08-06T08:08:08;100406.34;;;18.84;74.61
80712;BME280;70078;51.596;5.678;2023-08-06T08:10:34;100421.66;;;19.02;74.63
80712;BME280;70078;51.596;5.678;2023-08-06T08:13:03;100387.19;;;18.85;74.14
80712;BME280;70078;51.596;5.678;2023-08-06T08:15:30;100427.41;;;18.94;74.20
80712;BME280;70078;51.596;5.678;2023-08-06T08:17:55;100445.75;;;18.92;74.02
80712;BME280;70078;51.596;5.678;2023-08-06T08:20:21;100427.50;;;18.57;75.06
80712;BME280;70078;51.596;5.678;2023-08-06T08:22:47;100462.22;;;18.42;74.53
80712;BME280;70078;51.596;5.678;2023-08-06T08:25:12;100430.03;;;18.03;74.63
80712;BME280;70078;51.596;5.678;2023-08-06T08:27:38;100471.44;;;17.97;75.59
80712;BME280;70078;51.596;5.678;2023-08-06T08:30:04;100477.31;;;17.69;75.64
80712;BME280;70078;51.596;5.678;2023-08-06T08:32:29;100463.97;;;17.31;75.69
80712;BME280;70078;51.596;5.678;2023-08-06T08:34:55;100469.81;;;17.22;75.84
80712;BME280;70078;51.596;5.678;2023-08-06T08:37:20;100485.19;;;16.89;76.61
80712;BME280;70078;51.596;5.678;2023-08-06T08:39:45;100487.16;;;16.69;77.87
80712;BME280;70078;51.596;5.678;2023-08-06T08:42:11;100502.97;;;16.52;78.12
80712;BME280;70078;51.596;5.678;2023-08-06T08:44:36;100497.03;;;16.30;78.75
80712;BME280;70078;51.596;5.678;2023-08-06T08:47:06;100509.28;;;16.33;79.69
80712;BME280;70078;51.596;5.678;2023-08-06T08:49:31;100509.91;;;16.15;80.14
80712;BME280;70078;51.596;5.678;2023-08-06T08:51:59;100515.13;;;16.10;80.90
80712;BME280;70078;51.596;5.678;2023-08-06T08:54:27;100476.44;;;15.71;81.11
80712;BME280;70078;51.596;5.678;2023-08-06T08:56:53;100507.94;;;15.64;80.96
80712;BME280;70078;51.596;5.678;2023-08-06T08:59:20;100508.72;;;15.51;82.38
80712;BME280;70078;51.596;5.678;2023-08-06T09:01:46;100503.34;;;15.38;82.47
80712;BME280;70078;51.596;5.678;2023-08-06T09:04:17;100532.34;;;15.49;83.39
80712;BME280;70078;51.596;5.678;2023-08-06T09:06:42;100514.94;;;15.39;83.64
80712;BME280;70078;51.596;5.678;2023-08-06T09:09:17;100516.19;;;15.43;83.80
80712;BME280;70078;51.596;5.678;2023-08-06T09:11:47;100531.06;;;15.32;84.16
80712;BME280;70078;51.596;5.678;2023-08-06T09:14:14;100518.84;;;15.23;84.45
80712;BME280;70078;51.596;5.678;2023-08-06T09:16:40;100514.72;;;15.20;85.27
80712;BME280;70078;51.596;5.678;2023-08-06T09:21:36;100527.94;;;15.22;85.42
80712;BME280;70078;51.596;5.678;2023-08-06T09:24:07;100555.72;;;15.42;85.73
80712;BME280;70078;51.596;5.678;2023-08-06T09:26:34;100545.13;;;15.41;85.57
80712;BME280;70078;51.596;5.678;2023-08-06T09:28:59;100538.91;;;15.20;86.60
80712;BME280;70078;51.596;5.678;2023-08-06T09:31:25;100542.63;;;15.26;86.20
80712;BME280;70078;51.596;5.678;2023-08-06T09:33:59;100568.34;;;15.42;86.41
80712;BME280;70078;51.596;5.678;2023-08-06T09:36:25;100563.13;;;15.40;86.56
80712;BME280;70078;51.596;5.678;2023-08-06T09:38:50;100569.13;;;15.49;86.93
80712;BME280;70078;51.596;5.678;2023-08-06T09:41:27;100533.53;;;15.40;86.79
80712;BME280;70078;51.596;5.678;2023-08-06T09:43:55;100558.00;;;15.52;86.52
80712;BME280;70078;51.596;5.678;2023-08-06T09:46:21;100534.38;;;15.47;86.54
80712;BME280;70078;51.596;5.678;2023-08-06T09:48:47;100556.34;;;15.58;86.24
80712;BME280;70078;51.596;5.678;2023-08-06T09:51:13;100563.81;;;15.69;85.93
80712;BME280;70078;51.596;5.678;2023-08-06T09:53:40;100555.75;;;15.69;85.83
80712;BME280;70078;51.596;5.678;2023-08-06T09:56:07;100573.75;;;15.75;85.54
80712;BME280;70078;51.596;5.678;2023-08-06T09:58:34;100582.25;;;15.65;85.78
80712;BME280;70078;51.596;5.678;2023-08-06T10:01:02;100564.19;;;15.52;86.31
80712;BME280;70078;51.596;5.678;2023-08-06T10:03:28;100578.53;;;15.66;85.96
80712;BME280;70078;51.596;5.678;2023-08-06T10:05:55;100565.00;;;15.46;85.65
80712;BME280;70078;51.596;5.678;2023-08-06T10:08:21;100577.69;;;15.66;85.53
80712;BME280;70078;51.596;5.678;2023-08-06T10:10:47;100572.53;;;15.64;85.44
80712;BME280;70078;51.596;5.678;2023-08-06T10:13:13;100565.28;;;15.65;86.47
80712;BME280;70078;51.596;5.678;2023-08-06T10:15:39;100562.59;;;15.65;85.79
80712;BME280;70078;51.596;5.678;2023-08-06T10:18:06;100588.06;;;15.82;85.99
80712;BME280;70078;51.596;5.678;2023-08-06T10:20:35;100592.63;;;15.88;85.97
80712;BME280;70078;51.596;5.678;2023-08-06T10:23:04;100558.44;;;15.69;85.32
80712;BME280;70078;51.596;5.678;2023-08-06T10:25:31;100594.44;;;15.94;86.03
80712;BME280;70078;51.596;5.678;2023-08-06T10:27:58;100600.69;;;15.81;85.60
80712;BME280;70078;51.596;5.678;2023-08-06T10:30:26;100596.97;;;15.89;85.53
80712;BME280;70078;51.596;5.678;2023-08-06T10:32:53;100588.06;;;15.95;86.00
80712;BME280;70078;51.596;5.678;2023-08-06T10:40:28;100581.59;;;16.09;85.48
80712;BME280;70078;51.596;5.678;2023-08-06T10:42:58;100594.06;;;16.11;86.17
80712;BME280;70078;51.596;5.678;2023-08-06T10:45:23;100586.19;;;16.02;85.65
80712;BME280;70078;51.596;5.678;2023-08-06T10:47:53;100613.91;;;16.23;86.43
80712;BME280;70078;51.596;5.678;2023-08-06T10:50:19;100591.97;;;16.26;85.69
80712;BME280;70078;51.596;5.678;2023-08-06T10:52:46;100612.47;;;16.40;86.63
80712;BME280;70078;51.596;5.678;2023-08-06T10:55:12;100614.50;;;16.45;86.10
80712;BME280;70078;51.596;5.678;2023-08-06T10:57:38;100606.63;;;16.43;86.09
80712;BME280;70078;51.596;5.678;2023-08-06T11:00:07;100625.88;;;16.53;85.43
80712;BME280;70078;51.596;5.678;2023-08-06T11:02:36;100614.47;;;16.64;85.39
80712;BME280;70078;51.596;5.678;2023-08-06T11:05:08;100595.63;;;16.58;86.30
80712;BME280;70078;51.596;5.678;2023-08-06T11:07:37;100590.25;;;16.38;85.55
80712;BME280;70078;51.596;5.678;2023-08-06T11:10:07;100621.31;;;16.60;85.21
80712;BME280;70078;51.596;5.678;2023-08-06T11:12:34;100608.47;;;16.56;85.74
80712;BME280;70078;51.596;5.678;2023-08-06T11:15:00;100624.81;;;16.68;84.83
80712;BME280;70078;51.596;5.678;2023-08-06T11:17:31;100619.41;;;16.68;84.94
80712;BME280;70078;51.596;5.678;2023-08-06T11:19:59;100638.06;;;16.89;85.33
80712;BME280;70078;51.596;5.678;2023-08-06T11:22:25;100634.91;;;16.92;84.67
80712;BME280;70078;51.596;5.678;2023-08-06T11:24:53;100617.09;;;16.84;85.28
80712;BME280;70078;51.596;5.678;2023-08-06T11:27:18;100647.56;;;16.98;84.71
80712;BME280;70078;51.596;5.678;2023-08-06T11:29:44;100644.69;;;16.93;84.42
80712;BME280;70078;51.596;5.678;2023-08-06T11:32:10;100647.19;;;16.88;83.68
80712;BME280;70078;51.596;5.678;2023-08-06T11:34:36;100626.25;;;16.77;84.04
80712;BME280;70078;51.596;5.678;2023-08-06T11:37:06;100634.78;;;16.74;84.15
80712;BME280;70078;51.596;5.678;2023-08-06T11:39:35;100646.34;;;16.87;84.35
80712;BME280;70078;51.596;5.678;2023-08-06T11:42:05;100652.94;;;16.98;83.71
80712;BME280;70078;51.596;5.678;2023-08-06T11:44:32;100656.09;;;16.95;83.65
80712;BME280;70078;51.596;5.678;2023-08-06T11:46:59;100633.09;;;16.86;84.19
80712;BME280;70078;51.596;5.678;2023-08-06T11:49:46;100654.00;;;16.97;83.68
80712;BME280;70078;51.596;5.678;2023-08-06T11:52:16;100650.25;;;16.98;84.74
80712;BME280;70078;51.596;5.678;2023-08-06T11:54:43;100661.25;;;17.03;83.56
80712;BME280;70078;51.596;5.678;2023-08-06T11:57:10;100673.69;;;17.04;84.01
80712;BME280;70078;51.596;5.678;2023-08-06T11:59:37;100651.16;;;16.85;83.32
80712;BME280;70078;51.596;5.678;2023-08-06T12:02:04;100674.47;;;17.11;84.23
80712;BME280;70078;51.596;5.678;2023-08-06T12:04:57;100677.19;;;17.11;84.15
80712;BME280;70078;51.596;5.678;2023-08-06T12:07:29;100666.84;;;17.08;84.35
80712;BME280;70078;51.596;5.678;2023-08-06T12:09:54;100677.97;;;17.25;83.91
80712;BME280;70078;51.596;5.678;2023-08-06T12:12:20;100678.34;;;17.29;83.83
80712;BME280;70078;51.596;5.678;2023-08-06T12:14:45;100681.03;;;17.29;83.79
80712;BME280;70078;51.596;5.678;2023-08-06T12:17:10;100666.97;;;17.20;84.21
80712;BME280;70078;51.596;5.678;2023-08-06T12:19:36;100678.00;;;17.18;83.58
80712;BME280;70078;51.596;5.678;2023-08-06T12:22:01;100690.06;;;17.09;82.34
80712;BME280;70078;51.596;5.678;2023-08-06T12:24:27;100699.13;;;17.22;83.01
80712;BME280;70078;51.596;5.678;2023-08-06T12:26:57;100694.13;;;17.32;83.75
80712;BME280;70078;51.596;5.678;2023-08-06T12:29:23;100705.03;;;17.50;84.35
80712;BME280;70078;51.596;5.678;2023-08-06T12:31:48;100703.09;;;17.64;83.40
80712;BME280;70078;51.596;5.678;2023-08-06T12:34:13;100711.19;;;17.70;83.61
80712;BME280;70078;51.596;5.678;2023-08-06T12:36:39;100710.56;;;17.68;84.06
80712;BME280;70078;51.596;5.678;2023-08-06T12:39:04;100711.53;;;17.81;82.62
80712;BME280;70078;51.596;5.678;2023-08-06T12:41:30;100719.41;;;17.82;83.27
80712;BME280;70078;51.596;5.678;2023-08-06T12:43:55;100718.00;;;17.80;82.94
80712;BME280;70078;51.596;5.678;2023-08-06T12:46:20;100723.13;;;17.88;81.80
80712;BME280;70078;51.596;5.678;2023-08-06T12:48:45;100695.59;;;17.72;81.98
80712;BME280;70078;51.596;5.678;2023-08-06T12:51:11;100720.06;;;17.84;80.82
80712;BME280;70078;51.596;5.678;2023-08-06T12:53:36;100708.06;;;17.73;81.60
80712;BME280;70078;51.596;5.678;2023-08-06T12:56:02;100719.22;;;17.84;82.38
80712;BME280;70078;51.596;5.678;2023-08-06T12:58:27;100721.56;;;18.05;82.24